THY4HN LTBS-LTFM
Flight info
| Callsign | THY4HN |
|---|---|
| Flight time | 1h 1m |
| Altitude | 35000 |
| Route | RIVBU DCT BAGLU DCT ATGIT UT58 KFK/N0452F340 UM855 SISPI |
| Aircraft | A321/M-SDE3FGHIRWY/LB1 |
Departure
| Time | 2026-04-15 15:26 |
|---|---|
| Airport | Dalaman International Airport (LTBS) |
Arrival
| Time | 2026-04-15 16:27 |
|---|---|
| Airport | İstanbul Airport (LTFM) |
| Time | Latitude | Longitude | Altitude | Speed | Heading |
|---|---|---|---|---|---|
| 2026-04-15 15:04 | 36.71608 | 28.78816 | 14 ft | 0 kts | 285° |
| 2026-04-15 15:12 | 36.71606 | 28.78821 | 12 ft | 2 kts | 286° |
| 2026-04-15 15:12 | 36.71601 | 28.78844 | 13 ft | 3 kts | 290° |
| 2026-04-15 15:12 | 36.71593 | 28.78867 | 13 ft | 3 kts | 299° |
| 2026-04-15 15:13 | 36.71582 | 28.78888 | 14 ft | 3 kts | 318° |
| 2026-04-15 15:13 | 36.71567 | 28.78899 | 15 ft | 2 kts | 1° |
| 2026-04-15 15:13 | 36.71561 | 28.78899 | 14 ft | 0 kts | 14° |
| 2026-04-15 15:19 | 36.71564 | 28.78900 | 12 ft | 2 kts | 14° |
| 2026-04-15 15:19 | 36.71596 | 28.78910 | 12 ft | 6 kts | 14° |
| 2026-04-15 15:20 | 36.71641 | 28.78926 | 12 ft | 7 kts | 15° |
| 2026-04-15 15:20 | 36.71692 | 28.78943 | 12 ft | 8 kts | 15° |
| 2026-04-15 15:20 | 36.71750 | 28.78963 | 12 ft | 9 kts | 15° |
| 2026-04-15 15:20 | 36.71815 | 28.78986 | 12 ft | 10 kts | 17° |
| 2026-04-15 15:21 | 36.71881 | 28.79021 | 13 ft | 11 kts | 43° |
| 2026-04-15 15:21 | 36.71884 | 28.79108 | 12 ft | 11 kts | 100° |
| 2026-04-15 15:21 | 36.71875 | 28.79203 | 12 ft | 11 kts | 72° |
| 2026-04-15 15:21 | 36.71941 | 28.79252 | 12 ft | 12 kts | 14° |
| 2026-04-15 15:22 | 36.72023 | 28.79280 | 12 ft | 13 kts | 16° |
| 2026-04-15 15:22 | 36.72112 | 28.79310 | 12 ft | 14 kts | 14° |
| 2026-04-15 15:22 | 36.72205 | 28.79344 | 12 ft | 14 kts | 16° |
| 2026-04-15 15:22 | 36.72304 | 28.79378 | 12 ft | 15 kts | 14° |
| 2026-04-15 15:23 | 36.72409 | 28.79413 | 12 ft | 16 kts | 15° |
| 2026-04-15 15:23 | 36.72518 | 28.79449 | 12 ft | 17 kts | 14° |
| 2026-04-15 15:23 | 36.72621 | 28.79488 | 12 ft | 13 kts | 25° |
| 2026-04-15 15:23 | 36.72641 | 28.79564 | 12 ft | 9 kts | 103° |
| 2026-04-15 15:24 | 36.72616 | 28.79643 | 13 ft | 11 kts | 116° |
| 2026-04-15 15:24 | 36.72548 | 28.79671 | 12 ft | 13 kts | 187° |
| 2026-04-15 15:24 | 36.72474 | 28.79646 | 12 ft | 4 kts | 195° |
| 2026-04-15 15:24 | 36.72443 | 28.79636 | 12 ft | 5 kts | 195° |
| 2026-04-15 15:25 | 36.72387 | 28.79617 | 12 ft | 21 kts | 195° |
| 2026-04-15 15:25 | 36.71998 | 28.79483 | 12 ft | 92 kts | 195° |
| 2026-04-15 15:25 | 36.71177 | 28.79204 | 13 ft | 149 kts | 195° |
| 2026-04-15 15:25 | 36.70071 | 28.78832 | 342 ft | 167 kts | 195° |
| 2026-04-15 15:26 | 36.68991 | 28.78495 | 1194 ft | 156 kts | 194° |
| 2026-04-15 15:26 | 36.67919 | 28.78176 | 1746 ft | 162 kts | 194° |
| 2026-04-15 15:26 | 36.67168 | 28.77953 | 1967 ft | 172 kts | 193° |
| 2026-04-15 15:26 | 36.65958 | 28.77616 | 2333 ft | 183 kts | 191° |
| 2026-04-15 15:27 | 36.64661 | 28.77272 | 2620 ft | 200 kts | 190° |
| 2026-04-15 15:27 | 36.62767 | 28.76753 | 2945 ft | 222 kts | 194° |
| 2026-04-15 15:27 | 36.61732 | 28.76369 | 3041 ft | 238 kts | 196° |
| 2026-04-15 15:27 | 36.59508 | 28.75477 | 3383 ft | 266 kts | 196° |
| 2026-04-15 15:28 | 36.58306 | 28.75003 | 3771 ft | 270 kts | 195° |
| 2026-04-15 15:28 | 36.56458 | 28.74774 | 4395 ft | 270 kts | 166° |
| 2026-04-15 15:28 | 36.54820 | 28.75832 | 4992 ft | 268 kts | 131° |
| 2026-04-15 15:28 | 36.53890 | 28.77821 | 5622 ft | 268 kts | 107° |
| 2026-04-15 15:29 | 36.53442 | 28.80069 | 6282 ft | 270 kts | 99° |
| 2026-04-15 15:29 | 36.53136 | 28.82391 | 6928 ft | 274 kts | 98° |
| 2026-04-15 15:29 | 36.52823 | 28.84742 | 7570 ft | 278 kts | 99° |
| 2026-04-15 15:29 | 36.52447 | 28.87122 | 8208 ft | 282 kts | 102° |
| 2026-04-15 15:30 | 36.52008 | 28.89518 | 8792 ft | 287 kts | 104° |
| 2026-04-15 15:30 | 36.51694 | 28.91955 | 9349 ft | 292 kts | 88° |
| 2026-04-15 15:30 | 36.52172 | 28.94412 | 9917 ft | 297 kts | 62° |
| 2026-04-15 15:30 | 36.53483 | 28.96420 | 10237 ft | 309 kts | 35° |
| 2026-04-15 15:31 | 36.55475 | 28.97541 | 10363 ft | 326 kts | 14° |
| 2026-04-15 15:31 | 36.57723 | 28.98297 | 10483 ft | 344 kts | 14° |
| 2026-04-15 15:31 | 36.60103 | 28.99083 | 10606 ft | 363 kts | 14° |
| 2026-04-15 15:31 | 36.62591 | 28.99906 | 10829 ft | 375 kts | 14° |
| 2026-04-15 15:32 | 36.65127 | 29.00757 | 11301 ft | 380 kts | 14° |
| 2026-04-15 15:32 | 36.67693 | 29.01632 | 11817 ft | 382 kts | 14° |
| 2026-04-15 15:32 | 36.70265 | 29.02517 | 12348 ft | 385 kts | 14° |
| 2026-04-15 15:32 | 36.72862 | 29.03415 | 12887 ft | 387 kts | 13° |
| 2026-04-15 15:33 | 36.75442 | 29.04311 | 13360 ft | 390 kts | 13° |
| 2026-04-15 15:33 | 36.78069 | 29.05225 | 13948 ft | 393 kts | 13° |
| 2026-04-15 15:33 | 36.80707 | 29.06140 | 14439 ft | 395 kts | 13° |
| 2026-04-15 15:33 | 36.83360 | 29.07054 | 15003 ft | 397 kts | 13° |
| 2026-04-15 15:34 | 36.86030 | 29.07978 | 15529 ft | 399 kts | 13° |
| 2026-04-15 15:34 | 36.88706 | 29.08906 | 15980 ft | 400 kts | 13° |
| 2026-04-15 15:34 | 36.91404 | 29.09839 | 16483 ft | 402 kts | 13° |
| 2026-04-15 15:34 | 36.94103 | 29.10771 | 16960 ft | 404 kts | 14° |
| 2026-04-15 15:35 | 36.96789 | 29.11850 | 17403 ft | 407 kts | 20° |
| 2026-04-15 15:35 | 36.99399 | 29.13248 | 17840 ft | 409 kts | 21° |
| 2026-04-15 15:35 | 37.02016 | 29.14660 | 18260 ft | 411 kts | 21° |
| 2026-04-15 15:35 | 37.04650 | 29.16079 | 18649 ft | 413 kts | 21° |
| 2026-04-15 15:36 | 37.07297 | 29.17504 | 18991 ft | 416 kts | 21° |
| 2026-04-15 15:36 | 37.09968 | 29.18940 | 19298 ft | 419 kts | 21° |
| 2026-04-15 15:36 | 37.12658 | 29.20392 | 19626 ft | 422 kts | 22° |
| 2026-04-15 15:36 | 37.15370 | 29.21859 | 19970 ft | 425 kts | 22° |
| 2026-04-15 15:37 | 37.18063 | 29.23316 | 20309 ft | 428 kts | 22° |
| 2026-04-15 15:37 | 37.20812 | 29.24802 | 20652 ft | 431 kts | 22° |
| 2026-04-15 15:37 | 37.23584 | 29.26301 | 20961 ft | 435 kts | 21° |
| 2026-04-15 15:37 | 37.26367 | 29.27806 | 21277 ft | 438 kts | 21° |
| 2026-04-15 15:38 | 37.29181 | 29.29330 | 21584 ft | 441 kts | 21° |
| 2026-04-15 15:38 | 37.32089 | 29.30591 | 21889 ft | 441 kts | 12° |
| 2026-04-15 15:38 | 37.35110 | 29.31249 | 22202 ft | 442 kts | 3° |
| 2026-04-15 15:38 | 37.38190 | 29.31370 | 22488 ft | 444 kts | 359° |
| 2026-04-15 15:39 | 37.41254 | 29.31414 | 22782 ft | 446 kts | 359° |
| 2026-04-15 15:39 | 37.44369 | 29.31458 | 23082 ft | 449 kts | 359° |
| 2026-04-15 15:39 | 37.47504 | 29.31506 | 23385 ft | 452 kts | 359° |
| 2026-04-15 15:39 | 37.50664 | 29.31557 | 23679 ft | 454 kts | 359° |
| 2026-04-15 15:40 | 37.53829 | 29.31608 | 23969 ft | 456 kts | 359° |
| 2026-04-15 15:40 | 37.57003 | 29.31661 | 24253 ft | 457 kts | 359° |
| 2026-04-15 15:40 | 37.60189 | 29.31719 | 24527 ft | 459 kts | 359° |
| 2026-04-15 15:40 | 37.63386 | 29.31781 | 24805 ft | 460 kts | 359° |
| 2026-04-15 15:41 | 37.66600 | 29.31848 | 25077 ft | 462 kts | 0° |
| 2026-04-15 15:41 | 37.69784 | 29.32430 | 25358 ft | 466 kts | 14° |
| 2026-04-15 15:41 | 37.72765 | 29.34044 | 25635 ft | 469 kts | 30° |
| 2026-04-15 15:41 | 37.75345 | 29.36496 | 25884 ft | 472 kts | 38° |
| 2026-04-15 15:42 | 37.77871 | 29.39157 | 26134 ft | 473 kts | 38° |
| 2026-04-15 15:42 | 37.80393 | 29.41845 | 26380 ft | 475 kts | 39° |
| 2026-04-15 15:42 | 37.82920 | 29.44549 | 26595 ft | 476 kts | 39° |
| 2026-04-15 15:42 | 37.85455 | 29.47261 | 26806 ft | 477 kts | 39° |
| 2026-04-15 15:43 | 37.87996 | 29.49973 | 27012 ft | 478 kts | 38° |
| 2026-04-15 15:43 | 37.90548 | 29.52686 | 27282 ft | 477 kts | 38° |
| 2026-04-15 15:43 | 37.93092 | 29.55386 | 27560 ft | 477 kts | 37° |
| 2026-04-15 15:43 | 37.95858 | 29.57654 | 27792 ft | 473 kts | 23° |
| 2026-04-15 15:44 | 37.98943 | 29.59037 | 28022 ft | 470 kts | 14° |
| 2026-04-15 15:44 | 38.02092 | 29.60172 | 28302 ft | 470 kts | 14° |
| 2026-04-15 15:44 | 38.05232 | 29.61289 | 28586 ft | 469 kts | 13° |
| 2026-04-15 15:44 | 38.08378 | 29.62400 | 28861 ft | 468 kts | 13° |
| 2026-04-15 15:45 | 38.11513 | 29.63508 | 29137 ft | 468 kts | 13° |
| 2026-04-15 15:45 | 38.14606 | 29.64608 | 29407 ft | 467 kts | 13° |
| 2026-04-15 15:45 | 38.17739 | 29.65723 | 29676 ft | 467 kts | 13° |
| 2026-04-15 15:45 | 38.20859 | 29.66834 | 29946 ft | 466 kts | 13° |
| 2026-04-15 15:46 | 38.23983 | 29.67949 | 30209 ft | 466 kts | 13° |
| 2026-04-15 15:46 | 38.27096 | 29.69066 | 30434 ft | 466 kts | 13° |
| 2026-04-15 15:46 | 38.30214 | 29.70188 | 30640 ft | 465 kts | 13° |
| 2026-04-15 15:46 | 38.33334 | 29.71313 | 30855 ft | 465 kts | 14° |
| 2026-04-15 15:47 | 38.36447 | 29.72438 | 31074 ft | 465 kts | 13° |
| 2026-04-15 15:47 | 38.39564 | 29.73559 | 31295 ft | 465 kts | 13° |
| 2026-04-15 15:47 | 38.42673 | 29.74674 | 31526 ft | 465 kts | 13° |
| 2026-04-15 15:47 | 38.45788 | 29.75790 | 31748 ft | 465 kts | 13° |
| 2026-04-15 15:48 | 38.48907 | 29.76911 | 31956 ft | 465 kts | 13° |
| 2026-04-15 15:48 | 38.51974 | 29.78020 | 32168 ft | 465 kts | 13° |
| 2026-04-15 15:48 | 38.55127 | 29.79166 | 32384 ft | 465 kts | 13° |
| 2026-04-15 15:48 | 38.58201 | 29.80281 | 32582 ft | 465 kts | 13° |
| 2026-04-15 15:49 | 38.61354 | 29.81422 | 32784 ft | 465 kts | 13° |
| 2026-04-15 15:49 | 38.64437 | 29.82535 | 32942 ft | 466 kts | 13° |
| 2026-04-15 15:49 | 38.67565 | 29.83663 | 33149 ft | 466 kts | 13° |
| 2026-04-15 15:49 | 38.70685 | 29.84791 | 33370 ft | 466 kts | 13° |
| 2026-04-15 15:50 | 38.73806 | 29.85922 | 33584 ft | 465 kts | 13° |
| 2026-04-15 15:50 | 38.76915 | 29.87052 | 33795 ft | 465 kts | 13° |
| 2026-04-15 15:50 | 38.80033 | 29.88189 | 33992 ft | 465 kts | 13° |
| 2026-04-15 15:50 | 38.83147 | 29.89329 | 34188 ft | 465 kts | 13° |
| 2026-04-15 15:51 | 38.86259 | 29.90468 | 34367 ft | 465 kts | 13° |
| 2026-04-15 15:51 | 38.89368 | 29.91603 | 34553 ft | 464 kts | 13° |
| 2026-04-15 15:51 | 38.92479 | 29.92738 | 34726 ft | 464 kts | 13° |
| 2026-04-15 15:51 | 38.95584 | 29.93871 | 34887 ft | 464 kts | 13° |
| 2026-04-15 15:52 | 38.98658 | 29.94993 | 35065 ft | 464 kts | 12° |
| 2026-04-15 15:52 | 39.01771 | 29.96130 | 35131 ft | 466 kts | 12° |
| 2026-04-15 15:52 | 39.08020 | 29.98425 | 35133 ft | 467 kts | 12° |
| 2026-04-15 15:53 | 39.14232 | 30.00713 | 35130 ft | 466 kts | 12° |
| 2026-04-15 15:53 | 39.20496 | 30.03014 | 35130 ft | 468 kts | 12° |
| 2026-04-15 15:54 | 39.26761 | 30.05322 | 35124 ft | 468 kts | 12° |
| 2026-04-15 15:54 | 39.33036 | 30.07643 | 35136 ft | 469 kts | 11° |
| 2026-04-15 15:55 | 39.39325 | 30.09955 | 35131 ft | 469 kts | 9° |
| 2026-04-15 15:55 | 39.45717 | 30.10787 | 35130 ft | 457 kts | 351° |
| 2026-04-15 15:56 | 39.51840 | 30.09163 | 35130 ft | 445 kts | 334° |
| 2026-04-15 15:56 | 39.57511 | 30.06050 | 35134 ft | 442 kts | 331° |
| 2026-04-15 15:57 | 39.63167 | 30.02890 | 35106 ft | 442 kts | 331° |
| 2026-04-15 15:57 | 39.65979 | 30.01318 | 34099 ft | 440 kts | 331° |
| 2026-04-15 15:57 | 39.68772 | 29.99753 | 32682 ft | 440 kts | 332° |
| 2026-04-15 15:58 | 39.71517 | 29.98222 | 32321 ft | 416 kts | 332° |
| 2026-04-15 15:58 | 39.74136 | 29.96770 | 31577 ft | 408 kts | 332° |
| 2026-04-15 15:58 | 39.76757 | 29.95304 | 30809 ft | 411 kts | 332° |
| 2026-04-15 15:58 | 39.79380 | 29.93826 | 29946 ft | 410 kts | 332° |
| 2026-04-15 15:59 | 39.82020 | 29.92334 | 29036 ft | 416 kts | 332° |
| 2026-04-15 15:59 | 39.84677 | 29.90832 | 28268 ft | 416 kts | 333° |
| 2026-04-15 15:59 | 39.87298 | 29.89356 | 27985 ft | 405 kts | 333° |
| 2026-04-15 15:59 | 39.89903 | 29.88004 | 27722 ft | 404 kts | 339° |
| 2026-04-15 16:00 | 39.92651 | 29.87187 | 27461 ft | 407 kts | 348° |
| 2026-04-15 16:00 | 39.95503 | 29.86979 | 27205 ft | 410 kts | 355° |
| 2026-04-15 16:00 | 39.98348 | 29.86986 | 26957 ft | 408 kts | 355° |
| 2026-04-15 16:00 | 40.01186 | 29.86991 | 26704 ft | 406 kts | 355° |
| 2026-04-15 16:01 | 40.04004 | 29.86991 | 26486 ft | 405 kts | 355° |
| 2026-04-15 16:01 | 40.06824 | 29.86984 | 26130 ft | 403 kts | 355° |
| 2026-04-15 16:01 | 40.09621 | 29.86976 | 25775 ft | 401 kts | 355° |
| 2026-04-15 16:01 | 40.12378 | 29.86972 | 25418 ft | 400 kts | 356° |
| 2026-04-15 16:02 | 40.15152 | 29.86968 | 25056 ft | 398 kts | 356° |
| 2026-04-15 16:02 | 40.17923 | 29.86963 | 24708 ft | 396 kts | 356° |
| 2026-04-15 16:02 | 40.20672 | 29.86956 | 24345 ft | 394 kts | 356° |
| 2026-04-15 16:02 | 40.23405 | 29.86951 | 23984 ft | 392 kts | 356° |
| 2026-04-15 16:03 | 40.26122 | 29.86947 | 23628 ft | 390 kts | 356° |
| 2026-04-15 16:03 | 40.28828 | 29.86942 | 23247 ft | 388 kts | 356° |
| 2026-04-15 16:03 | 40.31524 | 29.86936 | 22890 ft | 386 kts | 356° |
| 2026-04-15 16:03 | 40.34209 | 29.86929 | 22550 ft | 384 kts | 356° |
| 2026-04-15 16:04 | 40.36877 | 29.86924 | 22194 ft | 383 kts | 357° |
| 2026-04-15 16:04 | 40.39527 | 29.87235 | 21858 ft | 385 kts | 8° |
| 2026-04-15 16:04 | 40.42094 | 29.88241 | 21618 ft | 387 kts | 20° |
| 2026-04-15 16:04 | 40.44479 | 29.89912 | 21636 ft | 391 kts | 31° |
| 2026-04-15 16:05 | 40.46713 | 29.91953 | 21640 ft | 385 kts | 32° |
| 2026-04-15 16:05 | 40.48881 | 29.93942 | 21639 ft | 368 kts | 32° |
| 2026-04-15 16:05 | 40.51007 | 29.95596 | 21644 ft | 352 kts | 20° |
| 2026-04-15 16:05 | 40.53298 | 29.96615 | 21355 ft | 346 kts | 8° |
| 2026-04-15 16:06 | 40.55638 | 29.96953 | 20841 ft | 341 kts | 356° |
| 2026-04-15 16:06 | 40.58006 | 29.96921 | 20345 ft | 340 kts | 356° |
| 2026-04-15 16:06 | 40.60399 | 29.96905 | 19882 ft | 339 kts | 357° |
| 2026-04-15 16:06 | 40.62752 | 29.96905 | 19427 ft | 337 kts | 358° |
| 2026-04-15 16:07 | 40.65094 | 29.96907 | 19000 ft | 336 kts | 358° |
| 2026-04-15 16:07 | 40.67375 | 29.96740 | 18694 ft | 328 kts | 349° |
| 2026-04-15 16:07 | 40.72018 | 29.95729 | 17181 ft | 339 kts | 340° |
| 2026-04-15 16:08 | 40.74169 | 29.94640 | 17043 ft | 325 kts | 337° |
| 2026-04-15 16:08 | 40.76251 | 29.93557 | 16731 ft | 319 kts | 337° |
| 2026-04-15 16:08 | 40.78328 | 29.92471 | 16327 ft | 315 kts | 336° |
| 2026-04-15 16:08 | 40.80309 | 29.91347 | 15922 ft | 312 kts | 330° |
| 2026-04-15 16:09 | 40.82124 | 29.89801 | 15527 ft | 308 kts | 320° |
| 2026-04-15 16:09 | 40.83679 | 29.87886 | 15134 ft | 304 kts | 310° |
| 2026-04-15 16:09 | 40.84945 | 29.85666 | 14732 ft | 302 kts | 300° |
| 2026-04-15 16:09 | 40.85890 | 29.83206 | 14350 ft | 299 kts | 290° |
| 2026-04-15 16:10 | 40.86500 | 29.80593 | 13899 ft | 299 kts | 282° |
| 2026-04-15 16:10 | 40.86762 | 29.77863 | 13405 ft | 300 kts | 272° |
| 2026-04-15 16:10 | 40.86741 | 29.75112 | 12971 ft | 298 kts | 269° |
| 2026-04-15 16:10 | 40.86706 | 29.72377 | 12537 ft | 297 kts | 270° |
| 2026-04-15 16:11 | 40.86807 | 29.69651 | 12124 ft | 296 kts | 274° |
| 2026-04-15 16:11 | 40.86968 | 29.66953 | 11738 ft | 293 kts | 275° |
| 2026-04-15 16:11 | 40.87151 | 29.64274 | 11336 ft | 292 kts | 276° |
| 2026-04-15 16:11 | 40.87337 | 29.61610 | 10964 ft | 290 kts | 276° |
| 2026-04-15 16:12 | 40.87519 | 29.58961 | 10586 ft | 288 kts | 276° |
| 2026-04-15 16:12 | 40.87700 | 29.56324 | 10199 ft | 288 kts | 275° |
| 2026-04-15 16:12 | 40.87877 | 29.53697 | 9800 ft | 286 kts | 276° |
| 2026-04-15 16:12 | 40.88047 | 29.51086 | 9391 ft | 285 kts | 276° |
| 2026-04-15 16:13 | 40.88211 | 29.48514 | 9015 ft | 283 kts | 276° |
| 2026-04-15 16:13 | 40.88373 | 29.45934 | 8631 ft | 281 kts | 275° |
| 2026-04-15 16:13 | 40.88535 | 29.43375 | 8288 ft | 278 kts | 276° |
| 2026-04-15 16:13 | 40.88695 | 29.40848 | 7910 ft | 276 kts | 275° |
| 2026-04-15 16:14 | 40.88854 | 29.38329 | 7564 ft | 273 kts | 276° |
| 2026-04-15 16:14 | 40.88957 | 29.36680 | 7355 ft | 271 kts | 276° |
| 2026-04-15 16:14 | 40.89113 | 29.34214 | 7040 ft | 267 kts | 276° |
| 2026-04-15 16:14 | 40.89267 | 29.31767 | 6653 ft | 267 kts | 275° |
| 2026-04-15 16:15 | 40.89420 | 29.29322 | 6266 ft | 266 kts | 275° |
| 2026-04-15 16:15 | 40.89570 | 29.26896 | 6011 ft | 262 kts | 276° |
| 2026-04-15 16:15 | 40.89719 | 29.24481 | 5978 ft | 266 kts | 275° |
| 2026-04-15 16:15 | 40.89869 | 29.22024 | 5986 ft | 269 kts | 275° |
| 2026-04-15 16:16 | 40.90020 | 29.19573 | 5855 ft | 266 kts | 275° |
| 2026-04-15 16:16 | 40.90169 | 29.17146 | 5491 ft | 264 kts | 275° |
| 2026-04-15 16:16 | 40.90318 | 29.14731 | 5094 ft | 264 kts | 275° |
| 2026-04-15 16:16 | 40.90465 | 29.12316 | 4733 ft | 262 kts | 275° |
| 2026-04-15 16:17 | 40.90608 | 29.09917 | 4346 ft | 262 kts | 275° |
| 2026-04-15 16:17 | 40.90750 | 29.07520 | 4017 ft | 259 kts | 275° |
| 2026-04-15 16:17 | 40.90890 | 29.05207 | 3976 ft | 244 kts | 275° |
| 2026-04-15 16:17 | 40.91021 | 29.03038 | 3995 ft | 234 kts | 275° |
| 2026-04-15 16:18 | 40.91191 | 29.00915 | 3982 ft | 232 kts | 282° |
| 2026-04-15 16:18 | 40.91668 | 28.98876 | 3987 ft | 232 kts | 289° |
| 2026-04-15 16:18 | 40.92180 | 28.96852 | 3984 ft | 232 kts | 288° |
| 2026-04-15 16:18 | 40.92688 | 28.94825 | 3982 ft | 232 kts | 289° |
| 2026-04-15 16:19 | 40.93196 | 28.92796 | 3984 ft | 233 kts | 288° |
| 2026-04-15 16:19 | 40.93704 | 28.90763 | 3983 ft | 233 kts | 288° |
| 2026-04-15 16:19 | 40.94210 | 28.88729 | 3984 ft | 233 kts | 288° |
| 2026-04-15 16:19 | 40.94715 | 28.86691 | 3985 ft | 233 kts | 288° |
| 2026-04-15 16:20 | 40.95217 | 28.84660 | 3985 ft | 232 kts | 289° |
| 2026-04-15 16:20 | 40.95719 | 28.82628 | 3982 ft | 232 kts | 288° |
| 2026-04-15 16:20 | 40.96222 | 28.80597 | 3984 ft | 232 kts | 289° |
| 2026-04-15 16:20 | 40.96763 | 28.78598 | 3982 ft | 226 kts | 297° |
| 2026-04-15 16:21 | 40.97749 | 28.77043 | 3996 ft | 222 kts | 323° |
| 2026-04-15 16:21 | 40.99146 | 28.76238 | 3985 ft | 220 kts | 349° |
| 2026-04-15 16:21 | 41.00679 | 28.76149 | 3986 ft | 221 kts | 359° |
| 2026-04-15 16:21 | 41.02217 | 28.76123 | 3984 ft | 221 kts | 359° |
| 2026-04-15 16:22 | 41.03758 | 28.76096 | 3985 ft | 220 kts | 359° |
| 2026-04-15 16:22 | 41.05281 | 28.76067 | 3976 ft | 212 kts | 359° |
| 2026-04-15 16:22 | 41.06697 | 28.76041 | 3982 ft | 198 kts | 359° |
| 2026-04-15 16:22 | 41.08016 | 28.76015 | 3894 ft | 191 kts | 359° |
| 2026-04-15 16:23 | 41.09363 | 28.75989 | 3660 ft | 189 kts | 359° |
| 2026-04-15 16:23 | 41.10675 | 28.75964 | 3428 ft | 188 kts | 359° |
| 2026-04-15 16:23 | 41.11941 | 28.75940 | 3174 ft | 175 kts | 360° |
| 2026-04-15 16:23 | 41.13121 | 28.75917 | 2974 ft | 169 kts | 1° |
| 2026-04-15 16:24 | 41.14296 | 28.75895 | 2750 ft | 163 kts | 1° |
| 2026-04-15 16:24 | 41.15393 | 28.75874 | 2535 ft | 153 kts | 2° |
| 2026-04-15 16:24 | 41.16431 | 28.75854 | 2328 ft | 149 kts | 1° |
| 2026-04-15 16:24 | 41.17475 | 28.75835 | 2132 ft | 148 kts | 2° |
| 2026-04-15 16:25 | 41.18483 | 28.75816 | 1936 ft | 146 kts | 4° |
| 2026-04-15 16:25 | 41.19483 | 28.75797 | 1743 ft | 142 kts | 5° |
| 2026-04-15 16:25 | 41.20473 | 28.75778 | 1533 ft | 143 kts | 2° |
| 2026-04-15 16:25 | 41.21454 | 28.75760 | 1349 ft | 140 kts | 4° |
| 2026-04-15 16:26 | 41.22428 | 28.75741 | 1136 ft | 140 kts | 2° |
| 2026-04-15 16:26 | 41.23393 | 28.75723 | 935 ft | 139 kts | 3° |
| 2026-04-15 16:26 | 41.24366 | 28.75702 | 731 ft | 141 kts | 4° |
| 2026-04-15 16:26 | 41.25342 | 28.75683 | 545 ft | 140 kts | 4° |
| 2026-04-15 16:27 | 41.26311 | 28.75665 | 360 ft | 139 kts | 4° |
| 2026-04-15 16:27 | 41.27211 | 28.75655 | 297 ft | 114 kts | 0° |
| 2026-04-15 16:27 | 41.27833 | 28.75646 | 276 ft | 65 kts | 359° |
| 2026-04-15 16:27 | 41.28132 | 28.75642 | 263 ft | 28 kts | 358° |
| 2026-04-15 16:28 | 41.28320 | 28.75570 | 256 ft | 29 kts | 336° |
| 2026-04-15 16:28 | 41.28417 | 28.75501 | 253 ft | 11 kts | 324° |
| 2026-04-15 16:28 | 41.28438 | 28.75407 | 252 ft | 12 kts | 257° |
| 2026-04-15 16:28 | 41.28381 | 28.75352 | 254 ft | 10 kts | 182° |
| 2026-04-15 16:29 | 41.28314 | 28.75353 | 256 ft | 9 kts | 179° |
| 2026-04-15 16:29 | 41.28256 | 28.75354 | 258 ft | 8 kts | 180° |
| 2026-04-15 16:29 | 41.28206 | 28.75354 | 260 ft | 7 kts | 180° |
| 2026-04-15 16:29 | 41.28155 | 28.75354 | 261 ft | 8 kts | 180° |
| 2026-04-15 16:30 | 41.28095 | 28.75354 | 264 ft | 9 kts | 179° |
| 2026-04-15 16:30 | 41.28032 | 28.75355 | 267 ft | 9 kts | 179° |
| 2026-04-15 16:30 | 41.27968 | 28.75356 | 270 ft | 9 kts | 179° |
| 2026-04-15 16:30 | 41.27909 | 28.75358 | 273 ft | 8 kts | 179° |
| 2026-04-15 16:31 | 41.27816 | 28.75359 | 279 ft | 19 kts | 179° |
| 2026-04-15 16:31 | 41.27682 | 28.75361 | 288 ft | 20 kts | 179° |
| 2026-04-15 16:31 | 41.27525 | 28.75363 | 297 ft | 23 kts | 180° |
| 2026-04-15 16:31 | 41.27368 | 28.75365 | 301 ft | 22 kts | 179° |
| 2026-04-15 16:32 | 41.27220 | 28.75367 | 303 ft | 21 kts | 179° |
| 2026-04-15 16:32 | 41.27088 | 28.75353 | 305 ft | 16 kts | 220° |
| 2026-04-15 16:32 | 41.27006 | 28.75256 | 306 ft | 17 kts | 202° |
| 2026-04-15 16:32 | 41.26890 | 28.75252 | 309 ft | 20 kts | 178° |
| 2026-04-15 16:33 | 41.26722 | 28.75258 | 311 ft | 25 kts | 180° |
| 2026-04-15 16:33 | 41.26550 | 28.75261 | 312 ft | 25 kts | 179° |
| 2026-04-15 16:33 | 41.26377 | 28.75264 | 313 ft | 25 kts | 179° |
| 2026-04-15 16:33 | 41.26260 | 28.75259 | 314 ft | 11 kts | 207° |
| 2026-04-15 16:34 | 41.26241 | 28.75156 | 313 ft | 13 kts | 268° |
| 2026-04-15 16:34 | 41.26239 | 28.75033 | 313 ft | 14 kts | 263° |
| 2026-04-15 16:34 | 41.26212 | 28.74922 | 313 ft | 9 kts | 251° |
| 2026-04-15 16:34 | 41.26197 | 28.74866 | 313 ft | 6 kts | 251° |
| 2026-04-15 16:35 | 41.26192 | 28.74847 | 313 ft | 2 kts | 251° |
| 2026-04-15 16:35 | 41.26192 | 28.74846 | 313 ft | 0 kts | 251° |